sensor_id;sensor_type;location;lat;lon;timestamp;temperature;humidity
5415;DHT22;2730;51.512;7.504;2024-02-26T00:00:30;4.90;90.60
5415;DHT22;2730;51.512;7.504;2024-02-26T00:02:59;4.80;99.90
5415;DHT22;2730;51.512;7.504;2024-02-26T00:05:26;5.00;25.50
5415;DHT22;2730;51.512;7.504;2024-02-26T00:07:57;5.10;1.00
5415;DHT22;2730;51.512;7.504;2024-02-26T00:10:24;5.00;26.70
5415;DHT22;2730;51.512;7.504;2024-02-26T00:12:53;5.10;1.00
5415;DHT22;2730;51.512;7.504;2024-02-26T00:15:21;5.10;1.00
5415;DHT22;2730;51.512;7.504;2024-02-26T00:17:48;4.90;7.70
5415;DHT22;2730;51.512;7.504;2024-02-26T00:20:20;4.90;91.00
5415;DHT22;2730;51.512;7.504;2024-02-26T00:22:48;4.90;94.60
5415;DHT22;2730;51.512;7.504;2024-02-26T00:25:16;4.90;85.80
5415;DHT22;2730;51.512;7.504;2024-02-26T00:27:46;4.90;99.90
5415;DHT22;2730;51.512;7.504;2024-02-26T00:30:13;4.90;99.90
5415;DHT22;2730;51.512;7.504;2024-02-26T00:32:40;4.80;99.90
5415;DHT22;2730;51.512;7.504;2024-02-26T00:35:17;4.80;99.90
5415;DHT22;2730;51.512;7.504;2024-02-26T00:37:46;4.80;99.90
5415;DHT22;2730;51.512;7.504;2024-02-26T00:40:13;4.90;99.90
5415;DHT22;2730;51.512;7.504;2024-02-26T00:42:40;4.80;99.90
5415;DHT22;2730;51.512;7.504;2024-02-26T00:45:11;4.70;99.90
5415;DHT22;2730;51.512;7.504;2024-02-26T00:47:38;4.70;99.90
5415;DHT22;2730;51.512;7.504;2024-02-26T00:50:07;4.80;99.90
5415;DHT22;2730;51.512;7.504;2024-02-26T00:52:36;5.00;99.90
5415;DHT22;2730;51.512;7.504;2024-02-26T00:55:04;5.10;99.90
5415;DHT22;2730;51.512;7.504;2024-02-26T00:57:34;5.00;99.90
5415;DHT22;2730;51.512;7.504;2024-02-26T01:00:03;5.00;99.90
5415;DHT22;2730;51.512;7.504;2024-02-26T01:02:35;5.00;99.90
5415;DHT22;2730;51.512;7.504;2024-02-26T01:05:02;5.00;99.90
5415;DHT22;2730;51.512;7.504;2024-02-26T01:07:37;4.90;99.90
5415;DHT22;2730;51.512;7.504;2024-02-26T01:10:05;4.90;99.90
5415;DHT22;2730;51.512;7.504;2024-02-26T01:12:32;4.80;99.90
5415;DHT22;2730;51.512;7.504;2024-02-26T01:15:01;4.80;99.90
5415;DHT22;2730;51.512;7.504;2024-02-26T01:17:28;4.90;99.90
5415;DHT22;2730;51.512;7.504;2024-02-26T01:19:55;5.10;99.90
5415;DHT22;2730;51.512;7.504;2024-02-26T01:22:22;5.10;86.70
5415;DHT22;2730;51.512;7.504;2024-02-26T01:24:51;5.00;99.90
5415;DHT22;2730;51.512;7.504;2024-02-26T01:27:19;5.00;99.90
5415;DHT22;2730;51.512;7.504;2024-02-26T01:29:47;5.10;7.70
5415;DHT22;2730;51.512;7.504;2024-02-26T01:32:17;5.00;29.40
5415;DHT22;2730;51.512;7.504;2024-02-26T01:34:46;5.00;58.20
5415;DHT22;2730;51.512;7.504;2024-02-26T01:37:15;5.00;87.90
5415;DHT22;2730;51.512;7.504;2024-02-26T01:39:44;5.00;76.60
5415;DHT22;2730;51.512;7.504;2024-02-26T01:42:12;5.10;30.90
5415;DHT22;2730;51.512;7.504;2024-02-26T01:44:39;5.10;43.70
5415;DHT22;2730;51.512;7.504;2024-02-26T01:47:07;5.00;1.00
5415;DHT22;2730;51.512;7.504;2024-02-26T01:49:36;5.10;1.00
5415;DHT22;2730;51.512;7.504;2024-02-26T01:52:05;5.10;1.00
5415;DHT22;2730;51.512;7.504;2024-02-26T01:54:34;5.30;1.00
5415;DHT22;2730;51.512;7.504;2024-02-26T01:57:03;5.30;1.00
5415;DHT22;2730;51.512;7.504;2024-02-26T01:59:34;5.30;1.00
5415;DHT22;2730;51.512;7.504;2024-02-26T02:02:03;5.50;1.00
5415;DHT22;2730;51.512;7.504;2024-02-26T02:04:34;5.40;1.00
5415;DHT22;2730;51.512;7.504;2024-02-26T02:07:03;5.40;1.00
5415;DHT22;2730;51.512;7.504;2024-02-26T02:09:31;5.30;1.00
5415;DHT22;2730;51.512;7.504;2024-02-26T02:12:00;5.20;1.00
5415;DHT22;2730;51.512;7.504;2024-02-26T02:14:27;5.30;1.00
5415;DHT22;2730;51.512;7.504;2024-02-26T02:16:59;5.30;1.00
5415;DHT22;2730;51.512;7.504;2024-02-26T02:19:26;5.40;1.00
5415;DHT22;2730;51.512;7.504;2024-02-26T02:21:54;5.30;1.00
5415;DHT22;2730;51.512;7.504;2024-02-26T02:24:21;5.30;1.00
5415;DHT22;2730;51.512;7.504;2024-02-26T02:26:48;5.30;1.00
5415;DHT22;2730;51.512;7.504;2024-02-26T02:29:15;5.30;1.00
5415;DHT22;2730;51.512;7.504;2024-02-26T02:31:43;5.20;1.00
5415;DHT22;2730;51.512;7.504;2024-02-26T02:34:10;5.20;1.00
5415;DHT22;2730;51.512;7.504;2024-02-26T02:36:49;5.10;1.00
5415;DHT22;2730;51.512;7.504;2024-02-26T02:39:17;5.20;1.00
5415;DHT22;2730;51.512;7.504;2024-02-26T02:41:44;5.10;1.00
5415;DHT22;2730;51.512;7.504;2024-02-26T02:44:14;5.20;1.00
5415;DHT22;2730;51.512;7.504;2024-02-26T02:46:41;5.20;1.00
5415;DHT22;2730;51.512;7.504;2024-02-26T02:49:10;5.30;1.00
5415;DHT22;2730;51.512;7.504;2024-02-26T02:51:37;5.30;1.00
5415;DHT22;2730;51.512;7.504;2024-02-26T02:54:04;5.30;1.00
5415;DHT22;2730;51.512;7.504;2024-02-26T02:56:34;5.30;1.00
5415;DHT22;2730;51.512;7.504;2024-02-26T02:59:01;5.20;1.00
5415;DHT22;2730;51.512;7.504;2024-02-26T03:01:28;5.20;1.00
5415;DHT22;2730;51.512;7.504;2024-02-26T03:03:56;5.20;1.00
5415;DHT22;2730;51.512;7.504;2024-02-26T03:06:23;5.20;1.00
5415;DHT22;2730;51.512;7.504;2024-02-26T03:08:52;5.30;1.00
5415;DHT22;2730;51.512;7.504;2024-02-26T03:11:21;5.30;1.00
5415;DHT22;2730;51.512;7.504;2024-02-26T03:13:53;5.10;1.00
5415;DHT22;2730;51.512;7.504;2024-02-26T03:16:20;5.30;1.00
5415;DHT22;2730;51.512;7.504;2024-02-26T03:18:47;5.20;1.00
5415;DHT22;2730;51.512;7.504;2024-02-26T03:21:14;5.20;1.00
5415;DHT22;2730;51.512;7.504;2024-02-26T03:23:43;5.20;1.00
5415;DHT22;2730;51.512;7.504;2024-02-26T03:26:11;5.20;1.00
5415;DHT22;2730;51.512;7.504;2024-02-26T03:28:43;5.30;1.00
5415;DHT22;2730;51.512;7.504;2024-02-26T03:31:11;5.30;1.00
5415;DHT22;2730;51.512;7.504;2024-02-26T03:33:38;5.40;1.00
5415;DHT22;2730;51.512;7.504;2024-02-26T03:36:05;5.30;1.00
5415;DHT22;2730;51.512;7.504;2024-02-26T03:38:32;5.20;1.00
5415;DHT22;2730;51.512;7.504;2024-02-26T03:40:59;5.20;1.00
5415;DHT22;2730;51.512;7.504;2024-02-26T03:43:26;5.20;1.00
5415;DHT22;2730;51.512;7.504;2024-02-26T03:45:54;5.20;1.00
5415;DHT22;2730;51.512;7.504;2024-02-26T03:48:27;5.20;80.00
5415;DHT22;2730;51.512;7.504;2024-02-26T03:50:54;5.00;99.90
5415;DHT22;2730;51.512;7.504;2024-02-26T03:53:21;4.90;99.90
5415;DHT22;2730;51.512;7.504;2024-02-26T03:55:48;4.80;1.00
5415;DHT22;2730;51.512;7.504;2024-02-26T03:58:18;4.80;1.00
5415;DHT22;2730;51.512;7.504;2024-02-26T04:00:45;4.70;99.90
5415;DHT22;2730;51.512;7.504;2024-02-26T04:03:12;4.60;1.00
5415;DHT22;2730;51.512;7.504;2024-02-26T04:05:43;4.50;20.00
5415;DHT22;2730;51.512;7.504;2024-02-26T04:08:09;4.40;99.90
5415;DHT22;2730;51.512;7.504;2024-02-26T04:10:36;4.40;99.90
5415;DHT22;2730;51.512;7.504;2024-02-26T04:13:07;4.40;63.00
5415;DHT22;2730;51.512;7.504;2024-02-26T04:15:34;4.40;24.00
5415;DHT22;2730;51.512;7.504;2024-02-26T04:18:03;4.30;1.00
5415;DHT22;2730;51.512;7.504;2024-02-26T04:20:30;4.30;59.10
5415;DHT22;2730;51.512;7.504;2024-02-26T04:22:59;4.30;99.90
5415;DHT22;2730;51.512;7.504;2024-02-26T04:25:25;4.20;1.00
5415;DHT22;2730;51.512;7.504;2024-02-26T04:27:55;4.20;1.00
5415;DHT22;2730;51.512;7.504;2024-02-26T04:30:26;4.20;99.90
5415;DHT22;2730;51.512;7.504;2024-02-26T04:32:52;4.20;1.00
5415;DHT22;2730;51.512;7.504;2024-02-26T04:35:20;4.20;1.00
5415;DHT22;2730;51.512;7.504;2024-02-26T04:37:48;4.20;1.00
5415;DHT22;2730;51.512;7.504;2024-02-26T04:40:16;4.20;11.50
5415;DHT22;2730;51.512;7.504;2024-02-26T04:42:43;4.20;91.50
5415;DHT22;2730;51.512;7.504;2024-02-26T04:45:10;4.20;99.90
5415;DHT22;2730;51.512;7.504;2024-02-26T04:47:37;4.20;99.90
5415;DHT22;2730;51.512;7.504;2024-02-26T04:50:04;4.20;1.00
5415;DHT22;2730;51.512;7.504;2024-02-26T04:52:32;4.20;99.90
5415;DHT22;2730;51.512;7.504;2024-02-26T04:54:59;4.20;99.90
5415;DHT22;2730;51.512;7.504;2024-02-26T04:57:27;4.30;99.90
5415;DHT22;2730;51.512;7.504;2024-02-26T04:59:55;4.30;99.90
5415;DHT22;2730;51.512;7.504;2024-02-26T05:02:22;4.30;99.90
5415;DHT22;2730;51.512;7.504;2024-02-26T05:04:50;4.30;34.80
5415;DHT22;2730;51.512;7.504;2024-02-26T05:07:17;4.30;1.00
5415;DHT22;2730;51.512;7.504;2024-02-26T05:09:46;4.30;1.00
5415;DHT22;2730;51.512;7.504;2024-02-26T05:12:15;4.30;1.00
5415;DHT22;2730;51.512;7.504;2024-02-26T05:14:43;4.30;1.00
5415;DHT22;2730;51.512;7.504;2024-02-26T05:17:10;4.40;1.00
5415;DHT22;2730;51.512;7.504;2024-02-26T05:19:37;4.30;99.90
5415;DHT22;2730;51.512;7.504;2024-02-26T05:22:03;4.40;1.00
5415;DHT22;2730;51.512;7.504;2024-02-26T05:24:30;4.30;99.90
5415;DHT22;2730;51.512;7.504;2024-02-26T05:26:59;4.30;1.00
5415;DHT22;2730;51.512;7.504;2024-02-26T05:29:27;4.30;1.00
5415;DHT22;2730;51.512;7.504;2024-02-26T05:31:58;4.30;96.20
5415;DHT22;2730;51.512;7.504;2024-02-26T05:34:24;4.40;99.90
5415;DHT22;2730;51.512;7.504;2024-02-26T05:36:51;4.40;99.90
5415;DHT22;2730;51.512;7.504;2024-02-26T05:39:18;4.30;99.90
5415;DHT22;2730;51.512;7.504;2024-02-26T05:41:45;4.40;99.90
5415;DHT22;2730;51.512;7.504;2024-02-26T05:44:12;4.30;99.90
5415;DHT22;2730;51.512;7.504;2024-02-26T05:46:40;4.30;99.90
5415;DHT22;2730;51.512;7.504;2024-02-26T05:49:08;4.30;99.90
5415;DHT22;2730;51.512;7.504;2024-02-26T05:51:35;4.30;99.90
5415;DHT22;2730;51.512;7.504;2024-02-26T05:54:02;4.40;99.90
5415;DHT22;2730;51.512;7.504;2024-02-26T05:56:29;4.40;99.90
5415;DHT22;2730;51.512;7.504;2024-02-26T05:58:59;4.40;99.90
5415;DHT22;2730;51.512;7.504;2024-02-26T06:01:27;4.40;99.90
5415;DHT22;2730;51.512;7.504;2024-02-26T06:03:54;4.40;99.90
5415;DHT22;2730;51.512;7.504;2024-02-26T06:06:23;4.30;99.90
5415;DHT22;2730;51.512;7.504;2024-02-26T06:08:51;4.40;99.90
5415;DHT22;2730;51.512;7.504;2024-02-26T06:11:18;4.40;99.90
5415;DHT22;2730;51.512;7.504;2024-02-26T06:13:47;4.30;99.90
5415;DHT22;2730;51.512;7.504;2024-02-26T06:16:14;4.30;1.00
5415;DHT22;2730;51.512;7.504;2024-02-26T06:18:41;4.30;1.00
5415;DHT22;2730;51.512;7.504;2024-02-26T06:21:09;4.30;1.00
5415;DHT22;2730;51.512;7.504;2024-02-26T06:23:38;4.40;1.00
5415;DHT22;2730;51.512;7.504;2024-02-26T06:26:04;4.30;1.00
5415;DHT22;2730;51.512;7.504;2024-02-26T06:28:31;4.30;1.00
5415;DHT22;2730;51.512;7.504;2024-02-26T06:31:02;4.30;1.00
5415;DHT22;2730;51.512;7.504;2024-02-26T06:33:29;4.30;1.00
5415;DHT22;2730;51.512;7.504;2024-02-26T06:35:57;4.30;1.00
5415;DHT22;2730;51.512;7.504;2024-02-26T06:38:24;4.30;1.00
5415;DHT22;2730;51.512;7.504;2024-02-26T06:40:54;4.30;1.00
5415;DHT22;2730;51.512;7.504;2024-02-26T06:43:21;4.30;1.00
5415;DHT22;2730;51.512;7.504;2024-02-26T06:45:50;4.30;1.00
5415;DHT22;2730;51.512;7.504;2024-02-26T06:48:19;4.30;1.00
5415;DHT22;2730;51.512;7.504;2024-02-26T06:50:46;4.40;1.00
5415;DHT22;2730;51.512;7.504;2024-02-26T06:53:13;4.30;1.00
5415;DHT22;2730;51.512;7.504;2024-02-26T06:55:39;4.30;1.00
5415;DHT22;2730;51.512;7.504;2024-02-26T06:58:08;4.40;1.00
5415;DHT22;2730;51.512;7.504;2024-02-26T07:00:35;4.40;1.00
5415;DHT22;2730;51.512;7.504;2024-02-26T07:03:02;4.40;1.00
5415;DHT22;2730;51.512;7.504;2024-02-26T07:05:30;4.40;1.00
5415;DHT22;2730;51.512;7.504;2024-02-26T07:07:59;4.30;1.00
5415;DHT22;2730;51.512;7.504;2024-02-26T07:10:26;4.40;1.00
5415;DHT22;2730;51.512;7.504;2024-02-26T07:12:53;4.40;1.00
5415;DHT22;2730;51.512;7.504;2024-02-26T07:15:22;4.30;1.00
5415;DHT22;2730;51.512;7.504;2024-02-26T07:17:49;4.40;1.00
5415;DHT22;2730;51.512;7.504;2024-02-26T07:20:16;4.40;1.00
5415;DHT22;2730;51.512;7.504;2024-02-26T07:22:45;4.40;1.00
5415;DHT22;2730;51.512;7.504;2024-02-26T07:25:12;4.40;1.00
5415;DHT22;2730;51.512;7.504;2024-02-26T07:27:39;4.40;1.00
5415;DHT22;2730;51.512;7.504;2024-02-26T07:30:07;4.50;1.00
5415;DHT22;2730;51.512;7.504;2024-02-26T07:32:36;4.40;1.00
5415;DHT22;2730;51.512;7.504;2024-02-26T07:35:04;4.40;1.00
5415;DHT22;2730;51.512;7.504;2024-02-26T07:37:31;4.40;1.00
5415;DHT22;2730;51.512;7.504;2024-02-26T07:39:59;4.40;1.00
5415;DHT22;2730;51.512;7.504;2024-02-26T07:42:26;4.40;1.00
5415;DHT22;2730;51.512;7.504;2024-02-26T07:44:53;4.50;1.00
5415;DHT22;2730;51.512;7.504;2024-02-26T07:47:22;4.50;1.00
5415;DHT22;2730;51.512;7.504;2024-02-26T07:49:53;4.50;1.00
5415;DHT22;2730;51.512;7.504;2024-02-26T07:52:19;4.60;1.00
5415;DHT22;2730;51.512;7.504;2024-02-26T07:54:46;4.50;1.00
5415;DHT22;2730;51.512;7.504;2024-02-26T07:57:14;4.50;1.00
5415;DHT22;2730;51.512;7.504;2024-02-26T07:59:42;4.60;1.00
5415;DHT22;2730;51.512;7.504;2024-02-26T08:02:11;4.60;1.00
5415;DHT22;2730;51.512;7.504;2024-02-26T08:04:39;4.60;1.00
5415;DHT22;2730;51.512;7.504;2024-02-26T08:07:07;4.70;1.00
5415;DHT22;2730;51.512;7.504;2024-02-26T08:09:34;4.70;1.00
5415;DHT22;2730;51.512;7.504;2024-02-26T08:12:01;4.60;1.00
5415;DHT22;2730;51.512;7.504;2024-02-26T08:14:28;4.70;1.00
5415;DHT22;2730;51.512;7.504;2024-02-26T08:16:55;4.60;1.00
5415;DHT22;2730;51.512;7.504;2024-02-26T08:19:22;4.70;1.00
5415;DHT22;2730;51.512;7.504;2024-02-26T08:21:52;4.70;1.00
5415;DHT22;2730;51.512;7.504;2024-02-26T08:24:23;4.70;1.00
5415;DHT22;2730;51.512;7.504;2024-02-26T08:26:49;4.70;1.00
5415;DHT22;2730;51.512;7.504;2024-02-26T08:29:18;4.70;1.00
5415;DHT22;2730;51.512;7.504;2024-02-26T08:31:45;4.80;1.00
5415;DHT22;2730;51.512;7.504;2024-02-26T08:34:12;4.70;1.00
5415;DHT22;2730;51.512;7.504;2024-02-26T08:36:41;4.80;1.00
5415;DHT22;2730;51.512;7.504;2024-02-26T08:39:09;4.80;1.00
5415;DHT22;2730;51.512;7.504;2024-02-26T08:41:38;4.80;1.00
5415;DHT22;2730;51.512;7.504;2024-02-26T08:44:06;4.90;1.00
5415;DHT22;2730;51.512;7.504;2024-02-26T08:46:32;5.00;1.00
5415;DHT22;2730;51.512;7.504;2024-02-26T08:48:59;5.10;1.00
5415;DHT22;2730;51.512;7.504;2024-02-26T08:51:26;5.00;1.00
5415;DHT22;2730;51.512;7.504;2024-02-26T08:53:53;5.10;1.00
5415;DHT22;2730;51.512;7.504;2024-02-26T08:56:20;5.00;1.00
5415;DHT22;2730;51.512;7.504;2024-02-26T08:58:48;5.10;1.00
5415;DHT22;2730;51.512;7.504;2024-02-26T09:01:19;5.10;1.00
5415;DHT22;2730;51.512;7.504;2024-02-26T09:03:46;5.00;1.00
5415;DHT22;2730;51.512;7.504;2024-02-26T09:06:15;5.10;1.00
5415;DHT22;2730;51.512;7.504;2024-02-26T09:08:42;5.10;1.00
5415;DHT22;2730;51.512;7.504;2024-02-26T09:11:08;5.10;1.00
5415;DHT22;2730;51.512;7.504;2024-02-26T09:13:36;5.20;1.00
5415;DHT22;2730;51.512;7.504;2024-02-26T09:16:05;5.20;1.00
5415;DHT22;2730;51.512;7.504;2024-02-26T09:18:32;5.20;1.00
5415;DHT22;2730;51.512;7.504;2024-02-26T09:20:59;5.20;1.00
5415;DHT22;2730;51.512;7.504;2024-02-26T09:23:27;5.20;1.00
5415;DHT22;2730;51.512;7.504;2024-02-26T09:25:57;5.30;1.00
5415;DHT22;2730;51.512;7.504;2024-02-26T09:28:24;5.30;1.00
5415;DHT22;2730;51.512;7.504;2024-02-26T09:30:50;5.30;1.00
5415;DHT22;2730;51.512;7.504;2024-02-26T09:33:18;5.30;1.00
5415;DHT22;2730;51.512;7.504;2024-02-26T09:35:45;5.30;1.00
5415;DHT22;2730;51.512;7.504;2024-02-26T09:38:12;5.30;1.00
5415;DHT22;2730;51.512;7.504;2024-02-26T09:40:40;5.30;1.00
5415;DHT22;2730;51.512;7.504;2024-02-26T09:43:07;5.30;1.00
5415;DHT22;2730;51.512;7.504;2024-02-26T09:45:37;5.30;1.00
5415;DHT22;2730;51.512;7.504;2024-02-26T09:48:04;5.30;1.00
5415;DHT22;2730;51.512;7.504;2024-02-26T09:50:37;5.30;1.00
5415;DHT22;2730;51.512;7.504;2024-02-26T09:53:04;5.40;1.00
5415;DHT22;2730;51.512;7.504;2024-02-26T09:55:33;5.40;1.00
5415;DHT22;2730;51.512;7.504;2024-02-26T09:58:00;5.40;1.00
5415;DHT22;2730;51.512;7.504;2024-02-26T10:00:30;5.50;1.00
5415;DHT22;2730;51.512;7.504;2024-02-26T10:03:04;5.50;1.00
5415;DHT22;2730;51.512;7.504;2024-02-26T10:05:32;5.50;1.00
5415;DHT22;2730;51.512;7.504;2024-02-26T10:08:01;5.50;1.00
5415;DHT22;2730;51.512;7.504;2024-02-26T10:10:29;5.60;1.00
5415;DHT22;2730;51.512;7.504;2024-02-26T10:12:57;5.60;1.00
5415;DHT22;2730;51.512;7.504;2024-02-26T10:15:24;5.70;1.00
5415;DHT22;2730;51.512;7.504;2024-02-26T10:17:51;5.70;1.00
5415;DHT22;2730;51.512;7.504;2024-02-26T10:20:19;5.70;1.00
5415;DHT22;2730;51.512;7.504;2024-02-26T10:22:47;5.80;1.00
5415;DHT22;2730;51.512;7.504;2024-02-26T10:25:15;5.80;1.00
5415;DHT22;2730;51.512;7.504;2024-02-26T10:27:44;5.90;1.00
5415;DHT22;2730;51.512;7.504;2024-02-26T10:30:19;6.00;99.90
5415;DHT22;2730;51.512;7.504;2024-02-26T10:32:47;6.00;99.90
5415;DHT22;2730;51.512;7.504;2024-02-26T10:35:14;6.10;99.90
5415;DHT22;2730;51.512;7.504;2024-02-26T10:37:41;6.10;99.90
5415;DHT22;2730;51.512;7.504;2024-02-26T10:40:10;6.20;99.90
5415;DHT22;2730;51.512;7.504;2024-02-26T10:42:38;6.20;99.90
5415;DHT22;2730;51.512;7.504;2024-02-26T10:45:06;6.30;99.90
5415;DHT22;2730;51.512;7.504;2024-02-26T10:47:34;6.30;99.90
5415;DHT22;2730;51.512;7.504;2024-02-26T10:50:02;6.40;99.90
5415;DHT22;2730;51.512;7.504;2024-02-26T10:52:31;6.50;99.90
5415;DHT22;2730;51.512;7.504;2024-02-26T10:55:01;6.60;99.90
5415;DHT22;2730;51.512;7.504;2024-02-26T10:57:31;6.70;99.90
5415;DHT22;2730;51.512;7.504;2024-02-26T11:00:02;6.80;99.90
5415;DHT22;2730;51.512;7.504;2024-02-26T11:02:33;6.90;99.90
5415;DHT22;2730;51.512;7.504;2024-02-26T11:05:02;7.00;99.90
5415;DHT22;2730;51.512;7.504;2024-02-26T11:07:30;7.10;99.90
5415;DHT22;2730;51.512;7.504;2024-02-26T11:09:59;7.20;18.90
5415;DHT22;2730;51.512;7.504;2024-02-26T11:12:27;7.20;69.80
5415;DHT22;2730;51.512;7.504;2024-02-26T11:14:55;7.40;1.00
5415;DHT22;2730;51.512;7.504;2024-02-26T11:17:28;7.40;1.00
5415;DHT22;2730;51.512;7.504;2024-02-26T11:19:57;7.50;1.00
5415;DHT22;2730;51.512;7.504;2024-02-26T11:22:24;7.60;99.90
5415;DHT22;2730;51.512;7.504;2024-02-26T11:24:54;7.60;99.90
5415;DHT22;2730;51.512;7.504;2024-02-26T11:27:25;7.70;99.90
5415;DHT22;2730;51.512;7.504;2024-02-26T11:29:56;7.80;99.90
5415;DHT22;2730;51.512;7.504;2024-02-26T11:32:26;7.90;99.90
5415;DHT22;2730;51.512;7.504;2024-02-26T11:34:56;7.80;99.90
5415;DHT22;2730;51.512;7.504;2024-02-26T11:37:25;7.70;1.00
5415;DHT22;2730;51.512;7.504;2024-02-26T11:39:52;7.70;99.90
5415;DHT22;2730;51.512;7.504;2024-02-26T11:42:24;7.60;99.90
5415;DHT22;2730;51.512;7.504;2024-02-26T11:44:52;7.60;1.00
5415;DHT22;2730;51.512;7.504;2024-02-26T11:47:20;7.60;99.90
5415;DHT22;2730;51.512;7.504;2024-02-26T11:49:49;7.60;1.00
5415;DHT22;2730;51.512;7.504;2024-02-26T11:52:16;7.50;99.90
5415;DHT22;2730;51.512;7.504;2024-02-26T11:54:47;7.50;1.00
5415;DHT22;2730;51.512;7.504;2024-02-26T11:57:23;7.50;99.90
5415;DHT22;2730;51.512;7.504;2024-02-26T11:59:51;7.50;1.00
5415;DHT22;2730;51.512;7.504;2024-02-26T12:02:40;7.50;99.90
5415;DHT22;2730;51.512;7.504;2024-02-26T12:05:11;7.50;1.00
5415;DHT22;2730;51.512;7.504;2024-02-26T12:07:40;7.50;1.00
5415;DHT22;2730;51.512;7.504;2024-02-26T12:10:24;7.60;1.00
5415;DHT22;2730;51.512;7.504;2024-02-26T12:12:58;7.70;1.00
5415;DHT22;2730;51.512;7.504;2024-02-26T12:15:31;7.70;1.00
5415;DHT22;2730;51.512;7.504;2024-02-26T12:18:01;7.90;1.00
5415;DHT22;2730;51.512;7.504;2024-02-26T12:20:29;7.90;1.00
5415;DHT22;2730;51.512;7.504;2024-02-26T12:23:00;7.90;1.00
5415;DHT22;2730;51.512;7.504;2024-02-26T12:25:29;7.80;99.90
5415;DHT22;2730;51.512;7.504;2024-02-26T12:27:57;7.80;99.90
5415;DHT22;2730;51.512;7.504;2024-02-26T12:30:24;7.80;99.90
5415;DHT22;2730;51.512;7.504;2024-02-26T12:32:54;7.70;99.90
5415;DHT22;2730;51.512;7.504;2024-02-26T12:35:22;7.70;99.90
5415;DHT22;2730;51.512;7.504;2024-02-26T12:37:51;7.60;99.90
5415;DHT22;2730;51.512;7.504;2024-02-26T12:40:19;7.60;82.70
5415;DHT22;2730;51.512;7.504;2024-02-26T12:42:47;7.50;99.90
5415;DHT22;2730;51.512;7.504;2024-02-26T12:45:14;7.50;1.00
5415;DHT22;2730;51.512;7.504;2024-02-26T12:47:44;7.40;98.60
5415;DHT22;2730;51.512;7.504;2024-02-26T12:50:12;7.50;99.90
5415;DHT22;2730;51.512;7.504;2024-02-26T12:52:42;7.50;99.90
5415;DHT22;2730;51.512;7.504;2024-02-26T12:55:14;7.40;99.90
5415;DHT22;2730;51.512;7.504;2024-02-26T12:57:41;7.30;1.00
5415;DHT22;2730;51.512;7.504;2024-02-26T13:00:12;7.30;99.90
5415;DHT22;2730;51.512;7.504;2024-02-26T13:02:41;7.30;99.90
5415;DHT22;2730;51.512;7.504;2024-02-26T13:05:10;7.30;84.50
5415;DHT22;2730;51.512;7.504;2024-02-26T13:07:42;7.30;99.90
5415;DHT22;2730;51.512;7.504;2024-02-26T13:10:11;7.30;1.00
5415;DHT22;2730;51.512;7.504;2024-02-26T13:12:43;7.30;1.00
5415;DHT22;2730;51.512;7.504;2024-02-26T13:15:16;7.20;1.00
5415;DHT22;2730;51.512;7.504;2024-02-26T13:17:43;7.30;1.00
5415;DHT22;2730;51.512;7.504;2024-02-26T13:20:10;7.30;1.00
5415;DHT22;2730;51.512;7.504;2024-02-26T13:22:37;7.20;11.00
5415;DHT22;2730;51.512;7.504;2024-02-26T13:25:05;7.20;99.90
5415;DHT22;2730;51.512;7.504;2024-02-26T13:27:34;7.20;57.60
5415;DHT22;2730;51.512;7.504;2024-02-26T13:30:06;7.20;1.00
5415;DHT22;2730;51.512;7.504;2024-02-26T13:32:38;7.30;95.70
5415;DHT22;2730;51.512;7.504;2024-02-26T13:35:06;7.40;1.00
5415;DHT22;2730;51.512;7.504;2024-02-26T13:37:34;7.40;99.90
5415;DHT22;2730;51.512;7.504;2024-02-26T13:40:01;7.50;1.00
5415;DHT22;2730;51.512;7.504;2024-02-26T13:42:31;7.50;99.90
5415;DHT22;2730;51.512;7.504;2024-02-26T13:44:59;7.60;99.90
5415;DHT22;2730;51.512;7.504;2024-02-26T13:47:26;7.50;99.90
5415;DHT22;2730;51.512;7.504;2024-02-26T13:49:53;7.50;1.00
5415;DHT22;2730;51.512;7.504;2024-02-26T13:52:20;7.50;99.90
5415;DHT22;2730;51.512;7.504;2024-02-26T13:54:47;7.60;99.90
5415;DHT22;2730;51.512;7.504;2024-02-26T13:57:14;7.70;1.00
5415;DHT22;2730;51.512;7.504;2024-02-26T13:59:41;7.70;1.00
5415;DHT22;2730;51.512;7.504;2024-02-26T14:02:10;7.70;38.70
5415;DHT22;2730;51.512;7.504;2024-02-26T14:04:37;7.90;1.00
5415;DHT22;2730;51.512;7.504;2024-02-26T14:07:05;7.90;1.00
5415;DHT22;2730;51.512;7.504;2024-02-26T14:09:32;7.70;1.00
5415;DHT22;2730;51.512;7.504;2024-02-26T14:11:59;7.80;1.00
5415;DHT22;2730;51.512;7.504;2024-02-26T14:14:28;7.80;1.00
5415;DHT22;2730;51.512;7.504;2024-02-26T14:16:58;7.80;1.00
5415;DHT22;2730;51.512;7.504;2024-02-26T14:19:27;7.70;1.00
5415;DHT22;2730;51.512;7.504;2024-02-26T14:21:54;7.80;1.00
5415;DHT22;2730;51.512;7.504;2024-02-26T14:24:20;7.80;1.00
5415;DHT22;2730;51.512;7.504;2024-02-26T14:26:47;7.90;1.00
5415;DHT22;2730;51.512;7.504;2024-02-26T14:29:14;7.90;1.00
5415;DHT22;2730;51.512;7.504;2024-02-26T14:31:42;7.80;99.90
5415;DHT22;2730;51.512;7.504;2024-02-26T14:34:08;7.90;99.90
5415;DHT22;2730;51.512;7.504;2024-02-26T14:36:38;8.00;99.90
5415;DHT22;2730;51.512;7.504;2024-02-26T14:39:06;8.00;99.90
5415;DHT22;2730;51.512;7.504;2024-02-26T14:41:33;8.10;64.90
5415;DHT22;2730;51.512;7.504;2024-02-26T14:43:59;8.10;70.50
5415;DHT22;2730;51.512;7.504;2024-02-26T14:46:26;8.10;3.50
5415;DHT22;2730;51.512;7.504;2024-02-26T14:48:53;8.10;44.30
5415;DHT22;2730;51.512;7.504;2024-02-26T14:51:22;8.10;33.60
5415;DHT22;2730;51.512;7.504;2024-02-26T14:53:51;8.20;1.00
5415;DHT22;2730;51.512;7.504;2024-02-26T14:56:18;8.10;1.00
5415;DHT22;2730;51.512;7.504;2024-02-26T14:58:45;8.00;1.00
5415;DHT22;2730;51.512;7.504;2024-02-26T15:01:14;8.00;1.00
5415;DHT22;2730;51.512;7.504;2024-02-26T15:03:41;7.90;1.00
5415;DHT22;2730;51.512;7.504;2024-02-26T15:06:08;7.90;1.00
5415;DHT22;2730;51.512;7.504;2024-02-26T15:08:35;7.90;1.00
5415;DHT22;2730;51.512;7.504;2024-02-26T15:11:04;7.80;1.00
5415;DHT22;2730;51.512;7.504;2024-02-26T15:13:31;7.90;1.00
5415;DHT22;2730;51.512;7.504;2024-02-26T15:15:57;8.00;1.00
5415;DHT22;2730;51.512;7.504;2024-02-26T15:18:24;8.00;1.00
5415;DHT22;2730;51.512;7.504;2024-02-26T15:20:51;8.00;1.00
5415;DHT22;2730;51.512;7.504;2024-02-26T15:23:19;8.10;1.00
5415;DHT22;2730;51.512;7.504;2024-02-26T15:25:45;8.10;1.00
5415;DHT22;2730;51.512;7.504;2024-02-26T15:28:14;8.10;1.00
5415;DHT22;2730;51.512;7.504;2024-02-26T15:30:42;8.10;1.00
5415;DHT22;2730;51.512;7.504;2024-02-26T15:33:09;8.10;1.00
5415;DHT22;2730;51.512;7.504;2024-02-26T15:35:37;8.10;1.00
5415;DHT22;2730;51.512;7.504;2024-02-26T15:38:07;8.10;1.00
5415;DHT22;2730;51.512;7.504;2024-02-26T15:40:34;8.00;1.00
5415;DHT22;2730;51.512;7.504;2024-02-26T15:43:01;8.00;1.00
5415;DHT22;2730;51.512;7.504;2024-02-26T15:45:28;7.90;1.00
5415;DHT22;2730;51.512;7.504;2024-02-26T15:47:57;7.80;1.00
5415;DHT22;2730;51.512;7.504;2024-02-26T15:50:24;7.80;1.00
5415;DHT22;2730;51.512;7.504;2024-02-26T15:52:51;7.80;1.00
5415;DHT22;2730;51.512;7.504;2024-02-26T15:55:19;7.70;1.00
5415;DHT22;2730;51.512;7.504;2024-02-26T15:57:46;7.70;1.00
5415;DHT22;2730;51.512;7.504;2024-02-26T16:00:14;7.70;1.00
5415;DHT22;2730;51.512;7.504;2024-02-26T16:02:42;7.70;1.00
5415;DHT22;2730;51.512;7.504;2024-02-26T16:05:09;7.70;1.00
5415;DHT22;2730;51.512;7.504;2024-02-26T16:07:39;7.60;1.00
5415;DHT22;2730;51.512;7.504;2024-02-26T16:10:08;7.60;1.00
5415;DHT22;2730;51.512;7.504;2024-02-26T16:12:39;7.50;1.00
5415;DHT22;2730;51.512;7.504;2024-02-26T16:15:07;7.50;1.00
5415;DHT22;2730;51.512;7.504;2024-02-26T16:17:37;7.50;1.00
5415;DHT22;2730;51.512;7.504;2024-02-26T16:20:13;7.50;1.00
5415;DHT22;2730;51.512;7.504;2024-02-26T16:22:41;7.50;1.00
5415;DHT22;2730;51.512;7.504;2024-02-26T16:25:08;7.50;1.00
5415;DHT22;2730;51.512;7.504;2024-02-26T16:27:34;7.40;1.00
5415;DHT22;2730;51.512;7.504;2024-02-26T16:30:03;7.40;1.00
5415;DHT22;2730;51.512;7.504;2024-02-26T16:32:34;7.40;1.00
5415;DHT22;2730;51.512;7.504;2024-02-26T16:35:03;7.40;35.50